Terminal Aerodrome Forecast
Issued by NWS

Home | Current Version | Previous Version | Text Only | Print | Product List | Glossary On
Versions: 1 2 3 4 5 6 7 8 9 10 11 12 13 14 15 16 17 18 19 20 21 22 23 24 25 26 27 28 29
000
FTUS46 KMTR 230500
TAFSFO
TAF
KSFO 230520Z 2306/2412 29008KT P6SM FEW010 BKN150
     FM231000 26003KT P6SM BKN015
     FM231800 29009KT P6SM FEW008 SCT015 OVC100
     FM240900 VRB03KT P6SM OVC015=

USA.gov is the U.S. government's official web portal to all federal, state and local government web resources and services.